Superior, Montana
Current Conditions -  °F | °C
As of 3:53 PM on Wednesday 22 Oct 2014 (Local Time) from KMLP Reporting Station
Overcast Overcast  
Wind Chill: 39°   Ceiling: 2100
Heat Index: 43°   Visibility: 10mi
Dew Point: 34°   Wind: 6mph
Humidity: 71%   Direction: NA
Pressure: 29.95"   Gusts: NA
Location:  47.19°N, 114.89°W
Report Text: KMLP 222153Z AUTO VRB05KT 10SM OVC021 06/01 A2995 RMK AO2 RAB29E40 SLP099 P0000 T00610011
Loading
Personal Weather Stations






























Interactive Weather Map
Tropical Storm Tracking
New forecast layout! Learn more

10-Day Weather Forecast

Advertisements
Track Severe Weather on mobile